Time;durP1;ratioP1;P1;durP2;ratioP2;P2;SDS_P1;SDS_P2;PMS_P1;PMS_P2;Temp;Humidity;BMP_temperature;BMP_pressure;BME280_temperature;BME280_humidity;BME280_pressure;Samples;Min_cycle;Max_cycle;Signal;HPM_P1;HPM_P2
2022/05/29 00:00:52;;;;;;;3.93;1.80;;;15.00;1.00;;;;;;4975301;28;20508;-71
2022/05/29 00:03:18;;;;;;;7.80;2.30;;;15.00;1.00;;;;;;4966043;28;20180;-71
2022/05/29 00:05:45;;;;;;;10.07;2.70;;;14.90;1.00;;;;;;4966821;28;20977;-71
2022/05/29 00:08:14;;;;;;;3.80;2.20;;;14.90;1.00;;;;;;4974162;28;20432;-71
2022/05/29 00:10:42;;;;;;;5.10;2.20;;;14.90;1.00;;;;;;4967821;28;20837;-71
2022/05/29 00:13:11;;;;;;;6.40;2.27;;;14.80;1.00;;;;;;4974633;28;20469;-71
2022/05/29 00:15:37;;;;;;;7.20;2.27;;;14.80;1.00;;;;;;4962212;28;20471;-71
2022/05/29 00:18:03;;;;;;;7.70;2.90;;;14.80;1.00;;;;;;4954980;28;20638;-71
2022/05/29 00:20:28;;;;;;;5.10;2.50;;;14.70;1.00;;;;;;4965919;28;20579;-71
2022/05/29 00:22:54;;;;;;;5.47;2.40;;;14.60;1.00;;;;;;4973983;28;20234;-71
2022/05/29 00:25:19;;;;;;;6.83;2.40;;;14.60;1.00;;;;;;4965746;28;20566;-71
2022/05/29 00:27:46;;;;;;;6.90;2.80;;;14.60;1.00;;;;;;4974668;28;20180;-71
2022/05/29 00:30:13;;;;;;;6.87;2.77;;;14.60;1.00;;;;;;4992882;28;20198;-72
2022/05/29 00:32:39;;;;;;;8.60;2.80;;;14.60;1.00;;;;;;4977981;28;20426;-71
2022/05/29 00:35:05;;;;;;;8.30;2.40;;;14.50;1.00;;;;;;4979603;28;20535;-72
2022/05/29 00:37:36;;;;;;;4.00;2.30;;;14.50;1.00;;;;;;4973553;28;20275;-71
2022/05/29 00:40:07;;;;;;;4.80;2.43;;;14.50;1.00;;;;;;4964949;28;20449;-71
2022/05/29 00:42:33;;;;;;;6.80;2.87;;;14.50;1.00;;;;;;4976039;28;20457;-71
2022/05/29 00:44:58;;;;;;;4.93;2.30;;;14.50;1.00;;;;;;4971323;28;20455;-71
2022/05/29 00:47:24;;;;;;;7.97;2.70;;;14.50;1.00;;;;;;4970038;28;20263;-71
2022/05/29 00:49:50;;;;;;;8.33;2.90;;;14.40;1.00;;;;;;4958526;28;20693;-70
2022/05/29 00:52:22;;;;;;;4.20;2.07;;;14.40;1.00;;;;;;4969322;28;20608;-71
2022/05/29 00:54:55;;;;;;;6.00;2.47;;;14.40;1.00;;;;;;4982506;28;20451;-71
2022/05/29 00:57:31;;;;;;;5.00;1.87;;;14.40;1.00;;;;;;4978922;28;20566;-71
2022/05/29 01:00:03;;;;;;;4.83;2.30;;;14.40;1.00;;;;;;4978352;28;20435;-71
2022/05/29 01:02:29;;;;;;;3.93;2.17;;;14.30;1.00;;;;;;4970591;28;20477;-72
2022/05/29 01:04:56;;;;;;;6.20;2.40;;;14.30;1.00;;;;;;4982035;28;20474;-71
2022/05/29 01:07:23;;;;;;;2.40;1.90;;;14.30;1.00;;;;;;4977559;28;20223;-71
2022/05/29 01:09:50;;;;;;;4.23;2.30;;;14.30;1.00;;;;;;4976960;28;20435;-71
2022/05/29 01:12:40;;;;;;;8.50;2.30;;;14.30;1.00;;;;;;4981932;28;20414;-72
2022/05/29 01:15:08;;;;;;;5.30;2.50;;;14.20;1.00;;;;;;4971069;28;20431;-70
2022/05/29 01:17:56;;;;;;;8.80;2.70;;;14.20;1.00;;;;;;4972733;28;20478;-71
2022/05/29 01:20:22;;;;;;;7.80;2.63;;;14.20;1.00;;;;;;4966158;28;20439;-71
2022/05/29 01:23:06;;;;;;;12.00;2.60;;;14.20;1.00;;;;;;4975272;28;20419;-71
2022/05/29 01:26:00;;;;;;;4.17;2.30;;;14.10;1.00;;;;;;5001424;28;20191;-71
2022/05/29 01:28:26;;;;;;;6.40;2.60;;;14.10;1.00;;;;;;4963183;28;20435;-71
2022/05/29 01:31:03;;;;;;;7.00;2.50;;;14.10;1.00;;;;;;4972762;28;20419;-72
2022/05/29 01:33:34;;;;;;;5.47;2.30;;;14.10;1.00;;;;;;4981285;28;20322;-70
2022/05/29 01:36:18;;;;;;;9.90;3.13;;;14.00;1.00;;;;;;4967601;28;20810;-70
2022/05/29 01:39:18;;;;;;;6.23;2.20;;;14.00;1.00;;;;;;4979529;28;20510;-71
2022/05/29 01:41:54;;;;;;;8.77;2.70;;;14.00;1.00;;;;;;4960085;28;20431;-70
2022/05/29 01:44:29;;;;;;;13.20;2.93;;;14.00;1.00;;;;;;4968244;28;20457;-71
2022/05/29 01:47:04;;;;;;;4.40;2.37;;;14.00;1.00;;;;;;4975969;28;20762;-71
2022/05/29 01:49:36;;;;;;;7.63;2.30;;;14.00;1.00;;;;;;4974470;28;20438;-71
2022/05/29 01:52:09;;;;;;;7.30;2.30;;;13.90;1.00;;;;;;4961127;28;20945;-72
2022/05/29 01:54:47;;;;;;;6.73;2.80;;;14.00;1.00;;;;;;4978294;28;20431;-71
2022/05/29 01:57:36;;;;;;;6.70;2.30;;;14.00;1.00;;;;;;4975257;28;20573;-71
2022/05/29 02:00:22;;;;;;;5.40;2.27;;;14.00;1.00;;;;;;4964231;28;20498;-70
2022/05/29 02:03:01;;;;;;;5.03;2.37;;;14.00;1.00;;;;;;4976491;28;20601;-70
2022/05/29 02:05:30;;;;;;;7.73;2.60;;;13.90;1.00;;;;;;4969788;28;20815;-71
2022/05/29 02:08:03;;;;;;;6.20;2.50;;;13.90;1.00;;;;;;4975319;28;20451;-71
2022/05/29 02:10:52;;;;;;;4.87;2.60;;;13.80;1.00;;;;;;4975355;28;20453;-71
2022/05/29 02:13:29;;;;;;;7.77;3.27;;;13.70;1.00;;;;;;4970674;28;20489;-71
2022/05/29 02:16:03;;;;;;;5.10;2.10;;;13.70;1.00;;;;;;4972125;28;20422;-71
2022/05/29 02:18:35;;;;;;;6.13;2.47;;;13.60;1.00;;;;;;4983266;28;20902;-70
2022/05/29 02:21:06;;;;;;;6.90;2.47;;;13.50;1.00;;;;;;4975750;28;20988;-71
2022/05/29 02:23:43;;;;;;;7.57;2.23;;;13.50;1.00;;;;;;4980715;28;20423;-71
2022/05/29 02:26:12;;;;;;;5.73;3.10;;;13.50;1.00;;;;;;4981820;28;20420;-71
2022/05/29 02:28:42;;;;;;;5.87;2.20;;;13.40;1.00;;;;;;4983868;28;20436;-71
2022/05/29 02:31:26;;;;;;;7.30;2.90;;;13.40;1.00;;;;;;4972614;28;21051;-71
2022/05/29 02:34:01;;;;;;;6.57;2.60;;;13.30;1.00;;;;;;4961061;28;20450;-71
2022/05/29 02:36:53;;;;;;;3.67;2.13;;;13.20;1.00;;;;;;4980021;28;20939;-71
2022/05/29 02:39:42;;;;;;;6.00;2.60;;;13.20;1.00;;;;;;4979610;28;20589;-71
2022/05/29 02:42:21;;;;;;;7.93;2.57;;;13.20;1.00;;;;;;4967317;28;20936;-71
2022/05/29 02:45:13;;;;;;;5.03;2.57;;;13.10;1.00;;;;;;4967483;28;20513;-71
2022/05/29 02:48:16;;;;;;;7.43;2.63;;;13.10;1.00;;;;;;4984463;28;20793;-71
2022/05/29 02:50:52;;;;;;;7.27;2.70;;;13.10;1.00;;;;;;4976233;28;20496;-71
2022/05/29 02:53:18;;;;;;;7.07;2.70;;;13.10;1.00;;;;;;4970046;28;20441;-71
2022/05/29 02:55:44;;;;;;;10.10;2.67;;;13.00;1.00;;;;;;4978181;28;20807;-72
2022/05/29 02:58:19;;;;;;;6.23;2.53;;;13.00;1.00;;;;;;4986696;28;20764;-71
2022/05/29 03:00:56;;;;;;;7.63;2.53;;;13.00;1.00;;;;;;4980317;28;20496;-71
2022/05/29 03:03:54;;;;;;;11.70;2.90;;;13.10;1.00;;;;;;4980823;28;20522;-71
2022/05/29 03:06:44;;;;;;;8.27;2.40;;;13.10;1.00;;;;;;4974164;28;20442;-71
2022/05/29 03:09:18;;;;;;;6.13;2.83;;;13.00;1.00;;;;;;4966714;28;20435;-71
2022/05/29 03:11:46;;;;;;;9.20;2.80;;;13.00;1.00;;;;;;4975945;28;20422;-71
2022/05/29 03:14:29;;;;;;;3.53;2.10;;;13.00;1.00;;;;;;4966133;28;20534;-70
2022/05/29 03:17:13;;;;;;;6.93;2.80;;;13.00;1.00;;;;;;4979209;28;20999;-71
2022/05/29 03:19:43;;;;;;;8.10;2.67;;;13.00;1.00;;;;;;4971965;28;20446;-71
2022/05/29 03:22:40;;;;;;;4.70;2.50;;;13.00;2.80;;;;;;4974271;28;20415;-71
2022/05/29 03:25:12;;;;;;;9.83;2.70;;;13.10;1.70;;;;;;4972057;28;20497;-71
2022/05/29 03:27:42;;;;;;;7.37;2.63;;;13.00;1.50;;;;;;4970979;28;20487;-72
2022/05/29 03:30:21;;;;;;;3.90;2.37;;;13.00;1.80;;;;;;4963929;28;20556;-71
2022/05/29 03:32:49;;;;;;;4.57;2.40;;;13.00;3.70;;;;;;4973922;28;20469;-71
2022/05/29 03:35:22;;;;;;;5.53;2.53;;;13.00;4.50;;;;;;4966308;28;20443;-70
2022/05/29 03:37:47;;;;;;;7.43;2.80;;;13.00;3.60;;;;;;4979909;28;20466;-71
2022/05/29 03:40:13;;;;;;;7.77;2.53;;;13.00;3.30;;;;;;4980024;28;20427;-71
2022/05/29 03:42:39;;;;;;;5.80;2.30;;;13.10;5.10;;;;;;4976897;28;20171;-71
2022/05/29 03:45:05;;;;;;;5.87;2.30;;;13.00;7.50;;;;;;4967744;28;20276;-71
2022/05/29 03:47:31;;;;;;;7.33;2.80;;;13.00;6.90;;;;;;4983056;28;20187;-72
2022/05/29 03:49:56;;;;;;;9.90;3.20;;;12.90;11.10;;;;;;4974261;28;20446;-71
2022/05/29 03:52:22;;;;;;;5.90;2.60;;;12.90;16.70;;;;;;4975038;28;20183;-70
2022/05/29 03:54:47;;;;;;;5.73;2.57;;;12.90;19.80;;;;;;4971114;28;20234;-70
2022/05/29 03:57:13;;;;;;;6.47;2.80;;;12.90;15.50;;;;;;4974048;28;20274;-71
2022/05/29 03:59:38;;;;;;;11.27;2.90;;;12.80;21.00;;;;;;4966998;28;20690;-70
2022/05/29 04:02:04;;;;;;;9.80;3.00;;;12.80;26.70;;;;;;4980941;28;20638;-70
2022/05/29 04:04:29;;;;;;;6.40;2.70;;;12.80;31.80;;;;;;4975219;28;20207;-71
2022/05/29 04:06:55;;;;;;;4.97;3.10;;;12.70;24.80;;;;;;4972340;28;20570;-70
2022/05/29 04:12:05;;;;;;;6.87;2.80;;;12.80;34.00;;;;;;4977357;28;20230;-70
2022/05/29 04:14:37;;;;;;;7.90;3.57;;;12.80;27.90;;;;;;4965964;28;20897;-71
2022/05/29 04:17:03;;;;;;;6.43;2.73;;;12.70;26.70;;;;;;4979917;28;20465;-70
2022/05/29 04:19:28;;;;;;;8.00;2.70;;;12.70;26.10;;;;;;4980369;28;20422;-72
2022/05/29 04:21:54;;;;;;;7.40;3.27;;;12.80;28.60;;;;;;4975840;28;20750;-70
2022/05/29 04:24:20;;;;;;;6.40;2.60;;;12.90;28.10;;;;;;4967003;28;20650;-71
2022/05/29 04:26:49;;;;;;;6.70;2.30;;;12.90;29.30;;;;;;4978013;28;20168;-70
2022/05/29 04:29:16;;;;;;;9.20;3.03;;;13.00;28.00;;;;;;4970836;28;20438;-72
2022/05/29 04:34:26;;;;;;;4.60;2.70;;;13.00;27.30;;;;;;4969697;28;20829;-70
2022/05/29 04:36:52;;;;;;;6.27;2.27;;;13.10;26.70;;;;;;4979742;28;20481;-71
2022/05/29 04:39:17;;;;;;;6.50;2.63;;;13.10;21.50;;;;;;4975581;28;20442;-71
2022/05/29 04:41:43;;;;;;;5.60;3.00;;;13.20;24.40;;;;;;4977566;28;20171;-70
2022/05/29 04:44:08;;;;;;;5.13;2.67;;;13.30;23.50;;;;;;4970127;28;20192;-71
2022/05/29 04:46:34;;;;;;;7.63;2.77;;;13.30;25.70;;;;;;4973255;28;20603;-71
2022/05/29 04:48:59;;;;;;;5.40;2.50;;;13.30;24.80;;;;;;4970915;28;20657;-70
2022/05/29 04:51:25;;;;;;;7.83;3.47;;;13.40;23.70;;;;;;4976746;28;20188;-70
2022/05/29 04:53:50;;;;;;;10.97;2.97;;;13.40;22.00;;;;;;4978545;28;20302;-71
2022/05/29 04:56:16;;;;;;;5.43;2.50;;;13.50;21.40;;;;;;4970988;28;20172;-70
2022/05/29 04:58:41;;;;;;;5.47;2.97;;;13.50;19.50;;;;;;4969715;28;20290;-70
2022/05/29 05:01:07;;;;;;;5.90;3.10;;;13.60;19.20;;;;;;4973316;28;20189;-71
2022/05/29 05:03:32;;;;;;;8.97;3.00;;;13.60;19.00;;;;;;4975193;28;20192;-69
2022/05/29 05:05:58;;;;;;;5.17;2.53;;;13.60;16.30;;;;;;4970491;28;20206;-70
2022/05/29 05:08:24;;;;;;;12.70;2.90;;;13.70;18.30;;;;;;4980700;28;20747;-71
2022/05/29 05:10:50;;;;;;;6.53;2.80;;;13.70;17.40;;;;;;4971606;28;20430;-70
2022/05/29 05:13:15;;;;;;;8.50;2.70;;;13.60;15.70;;;;;;4975955;28;20596;-71
2022/05/29 05:15:41;;;;;;;6.93;2.77;;;13.70;15.90;;;;;;4971807;28;20266;-72
2022/05/29 05:18:07;;;;;;;11.17;3.00;;;13.70;14.00;;;;;;4972109;28;20263;-70
2022/05/29 05:20:33;;;;;;;5.80;2.70;;;13.70;14.20;;;;;;4977933;28;20179;-70
2022/05/29 05:22:59;;;;;;;9.20;2.50;;;13.60;16.00;;;;;;4970553;28;20690;-72
2022/05/29 05:25:25;;;;;;;11.10;3.03;;;13.60;13.40;;;;;;4975996;28;20199;-70
2022/05/29 05:27:51;;;;;;;7.53;2.80;;;13.60;16.20;;;;;;4986315;28;21004;-70
2022/05/29 05:30:16;;;;;;;10.10;3.07;;;13.60;15.40;;;;;;4967510;28;20206;-71
2022/05/29 05:32:42;;;;;;;10.03;2.97;;;13.70;16.60;;;;;;4977534;28;20179;-70
2022/05/29 05:35:08;;;;;;;9.30;3.03;;;13.70;18.70;;;;;;4968608;28;20208;-70
2022/05/29 05:37:36;;;;;;;7.53;2.90;;;13.80;18.60;;;;;;4975830;28;20242;-71
2022/05/29 05:40:10;;;;;;;7.27;2.90;;;13.80;18.00;;;;;;4966058;28;20892;-70
2022/05/29 05:42:36;;;;;;;7.60;3.57;;;13.90;18.10;;;;;;4979970;28;20464;-70
2022/05/29 05:45:02;;;;;;;9.27;3.37;;;14.00;17.50;;;;;;4969805;28;20462;-70
2022/05/29 05:47:28;;;;;;;6.73;3.00;;;13.90;19.70;;;;;;4973711;28;20979;-71
2022/05/29 05:49:54;;;;;;;11.70;3.50;;;13.90;20.20;;;;;;4968920;28;20451;-71
2022/05/29 05:52:19;;;;;;;11.80;3.00;;;13.90;20.70;;;;;;4977716;28;20238;-71
2022/05/29 05:54:45;;;;;;;6.60;2.77;;;13.90;22.60;;;;;;4970044;28;20650;-71
2022/05/29 05:57:11;;;;;;;5.70;2.67;;;13.70;23.60;;;;;;4978301;28;20639;-71
2022/05/29 05:59:38;;;;;;;5.83;2.47;;;13.60;24.20;;;;;;4978015;28;20179;-70
2022/05/29 06:02:04;;;;;;;9.90;2.83;;;13.60;25.10;;;;;;4970355;28;20252;-70
2022/05/29 06:04:30;;;;;;;7.53;2.80;;;13.50;28.70;;;;;;4975832;28;20482;-71
2022/05/29 06:06:55;;;;;;;6.70;2.70;;;13.60;24.70;;;;;;4977569;28;20437;-70
2022/05/29 06:09:22;;;;;;;6.70;2.20;;;13.70;23.80;;;;;;4976339;28;20741;-70
2022/05/29 06:11:48;;;;;;;6.57;2.43;;;13.60;22.10;;;;;;4976970;28;20198;-71
2022/05/29 06:14:14;;;;;;;5.37;2.40;;;13.70;25.10;;;;;;4963526;28;20800;-70
2022/05/29 06:16:40;;;;;;;5.43;2.37;;;13.60;24.60;;;;;;4971994;28;20418;-70
2022/05/29 06:19:06;;;;;;;5.13;2.70;;;13.70;24.90;;;;;;4980156;28;20176;-70
2022/05/29 06:21:35;;;;;;;4.03;2.30;;;13.90;22.60;;;;;;4965746;28;20172;-71
2022/05/29 06:24:01;;;;;;;5.83;2.20;;;13.90;18.90;;;;;;4969047;28;20447;-70
2022/05/29 06:26:27;;;;;;;4.47;2.23;;;13.70;20.70;;;;;;4976347;28;20506;-70
2022/05/29 06:28:52;;;;;;;4.57;2.50;;;13.60;22.00;;;;;;4971172;28;20415;-71
2022/05/29 06:31:18;;;;;;;3.53;2.30;;;13.60;25.30;;;;;;4976642;28;20175;-70
2022/05/29 06:33:43;;;;;;;6.53;2.17;;;13.60;22.10;;;;;;4979740;28;20247;-72
2022/05/29 06:36:17;;;;;;;4.47;1.97;;;13.60;24.20;;;;;;4976405;28;20227;-71
2022/05/29 06:38:45;;;;;;;4.50;2.10;;;13.50;25.90;;;;;;4972429;28;20286;-70
2022/05/29 06:41:12;;;;;;;4.20;2.33;;;13.50;29.50;;;;;;4972575;28;20525;-70
2022/05/29 06:43:38;;;;;;;3.90;2.00;;;13.40;40.90;;;;;;4969733;28;20438;-72
2022/05/29 06:46:06;;;;;;;4.32;2.10;;;13.30;40.70;;;;;;4966528;28;20814;-71
2022/05/29 06:48:33;;;;;;;5.67;2.30;;;13.20;44.20;;;;;;4973209;28;20246;-71
2022/05/29 06:51:04;;;;;;;3.60;2.33;;;13.10;62.30;;;;;;4966222;28;20448;-72
2022/05/29 06:53:29;;;;;;;11.53;3.17;;;12.70;77.70;;;;;;4966936;28;20797;-71
2022/05/29 06:55:55;;;;;;;6.97;2.60;;;12.40;96.90;;;;;;4980476;28;20602;-73
2022/05/29 06:58:22;;;;;;;8.27;2.67;;;12.20;97.00;;;;;;4969227;28;20398;-73
2022/05/29 07:09:04;;;;;;;5.07;2.60;;;11.60;99.90;;;;;;4962991;28;20457;-72
2022/05/29 07:11:34;;;;;;;10.37;3.03;;;11.50;99.90;;;;;;4973178;28;20444;-71
2022/05/29 07:14:02;;;;;;;4.37;2.33;;;11.40;99.90;;;;;;4975756;28;20513;-75
2022/05/29 07:16:27;;;;;;;8.67;2.70;;;11.20;99.90;;;;;;4977193;28;20470;-73
2022/05/29 07:18:54;;;;;;;5.63;3.23;;;11.20;99.90;;;;;;4978987;28;20514;-76
2022/05/29 07:21:20;;;;;;;9.93;2.67;;;11.20;99.90;;;;;;4969055;28;20616;-75
2022/05/29 07:23:46;;;;;;;4.30;2.33;;;11.10;99.90;;;;;;4956443;28;20823;-76
2022/05/29 07:26:11;;;;;;;5.23;2.83;;;11.20;99.90;;;;;;4965108;28;20473;-74
2022/05/29 07:28:37;;;;;;;4.73;2.60;;;11.30;99.90;;;;;;4962257;28;20284;-75
2022/05/29 07:31:03;;;;;;;5.73;2.57;;;11.50;99.90;;;;;;4962199;28;20507;-82
2022/05/29 07:33:29;;;;;;;4.70;2.23;;;11.60;99.90;;;;;;4976065;28;20506;-73
2022/05/29 07:35:55;;;;;;;6.23;2.70;;;11.70;99.90;;;;;;4974327;28;20971;-74
2022/05/29 07:38:22;;;;;;;4.97;2.23;;;11.80;99.90;;;;;;4969650;28;20474;-81
2022/05/29 07:40:48;;;;;;;7.67;2.87;;;12.00;99.90;;;;;;4969574;28;20453;-76
2022/05/29 07:43:20;;;;;;;8.63;3.20;;;12.10;99.90;;;;;;4967958;28;20471;-73
2022/05/29 07:45:57;;;;;;;4.30;3.10;;;12.20;99.90;;;;;;4962208;28;20530;-72
2022/05/29 07:48:25;;;;;;;4.77;2.97;;;12.30;99.90;;;;;;4966505;28;20473;-72
2022/05/29 07:50:51;;;;;;;11.20;3.10;;;12.40;99.90;;;;;;4959489;28;20451;-71
2022/05/29 07:53:17;;;;;;;6.00;3.00;;;12.80;99.90;;;;;;4978881;28;20564;-71
2022/05/29 07:55:44;;;;;;;5.50;3.00;;;12.40;99.90;;;;;;4980622;28;20507;-70
2022/05/29 07:58:10;;;;;;;3.17;2.57;;;12.70;99.90;;;;;;4979426;28;20468;-71
2022/05/29 08:00:36;;;;;;;4.03;2.63;;;12.90;99.90;;;;;;4972158;28;20506;-70
2022/05/29 08:03:03;;;;;;;6.07;2.73;;;12.00;99.90;;;;;;4966302;28;20442;-71
2022/05/29 08:05:31;;;;;;;3.13;2.43;;;13.50;99.90;;;;;;4974920;28;20211;-71
2022/05/29 08:07:57;;;;;;;7.17;2.73;;;13.90;99.90;;;;;;4975780;28;20418;-72
2022/05/29 08:10:24;;;;;;;8.23;2.77;;;14.10;99.90;;;;;;4975477;28;20542;-72
2022/05/29 08:12:49;;;;;;;7.03;2.80;;;14.40;99.90;;;;;;4974749;28;20411;-72
2022/05/29 08:15:15;;;;;;;5.80;3.03;;;14.60;97.10;;;;;;4975718;28;20890;-71
2022/05/29 08:17:41;;;;;;;6.90;2.77;;;14.80;94.60;;;;;;4978650;28;20202;-71
2022/05/29 08:20:09;;;;;;;5.87;2.97;;;15.00;83.90;;;;;;4979560;28;20194;-71
2022/05/29 08:22:35;;;;;;;10.53;2.60;;;15.50;90.00;;;;;;4992949;28;20409;-72
2022/05/29 08:30:43;;;;;;;4.83;2.50;;;16.90;45.70;;;;;;4975405;28;20540;-72
2022/05/29 08:33:16;;;;;;;7.30;2.70;;;17.00;44.00;;;;;;4974799;28;20801;-72
2022/05/29 08:35:45;;;;;;;6.93;2.73;;;17.20;29.40;;;;;;4975508;28;20443;-71
2022/05/29 08:38:12;;;;;;;4.43;2.80;;;17.60;37.70;;;;;;4975348;28;20542;-72
2022/05/29 08:40:44;;;;;;;7.13;2.90;;;18.10;20.60;;;;;;4974160;28;20612;-73
2022/05/29 08:43:35;;;;;;;4.27;2.80;;;18.30;22.00;;;;;;4974589;28;20411;-73
2022/05/29 08:46:12;;;;;;;6.70;3.10;;;18.40;21.30;;;;;;4973905;28;20558;-72
2022/05/29 08:48:38;;;;;;;5.23;2.90;;;18.30;19.00;;;;;;4964698;28;20411;-72
2022/05/29 08:51:18;;;;;;;5.00;2.80;;;18.30;19.40;;;;;;4974039;28;20415;-72
2022/05/29 08:54:11;;;;;;;4.37;2.33;;;18.40;12.50;;;;;;4984245;28;20175;-74
2022/05/29 08:56:59;;;;;;;3.50;2.60;;;19.00;9.60;;;;;;4985495;28;20426;-73
2022/05/29 08:59:49;;;;;;;6.07;2.77;;;19.70;4.70;;;;;;4994233;28;20417;-73
2022/05/29 09:02:52;;;;;;;4.50;2.40;;;20.00;1.00;;;;;;4984248;28;20460;-72
2022/05/29 09:05:42;;;;;;;3.77;2.20;;;20.40;1.00;;;;;;4960018;28;20525;-74
2022/05/29 09:08:34;;;;;;;4.80;2.43;;;21.80;1.00;;;;;;4972093;28;20431;-72
2022/05/29 09:11:11;;;;;;;4.10;2.60;;;23.50;1.00;;;;;;4968072;28;20411;-72
2022/05/29 09:13:43;;;;;;;4.40;2.60;;;24.80;1.00;;;;;;4971392;28;20418;-72
2022/05/29 09:16:18;;;;;;;7.00;2.60;;;26.00;1.00;;;;;;4958858;28;20419;-74
2022/05/29 09:18:53;;;;;;;4.13;2.40;;;26.70;1.00;;;;;;4966816;28;20195;-74
2022/05/29 09:21:23;;;;;;;6.10;2.93;;;27.20;1.00;;;;;;4965450;28;20273;-72
2022/05/29 09:24:21;;;;;;;4.83;2.77;;;27.40;1.00;;;;;;4972581;28;20214;-72
2022/05/29 09:26:46;;;;;;;5.25;2.65;;;27.60;1.00;;;;;;4962426;28;20187;-72
2022/05/29 09:29:12;;;;;;;4.47;2.03;;;28.40;1.00;;;;;;4970259;28;20225;-72
2022/05/29 09:31:39;;;;;;;5.57;2.45;;;28.60;1.00;;;;;;4954682;28;20418;-73
2022/05/29 09:34:04;;;;;;;5.10;2.53;;;28.90;1.00;;;;;;4967549;28;20675;-72
2022/05/29 09:37:04;;;;;;;5.55;2.28;;;29.30;1.00;;;;;;4966617;28;20266;-73
2022/05/29 09:39:39;;;;;;;4.53;2.20;;;30.00;1.00;;;;;;4978506;28;20179;-73
2022/05/29 09:42:17;;;;;;;7.38;2.47;;;30.60;1.00;;;;;;4964600;28;20297;-73
2022/05/29 09:45:23;;;;;;;5.22;2.30;;;30.70;1.00;;;;;;4955792;28;20678;-73
2022/05/29 09:50:49;;;;;;;5.53;2.53;;;31.20;1.00;;;;;;4962109;28;20239;-73
2022/05/29 09:53:19;;;;;;;6.50;2.22;;;31.60;1.00;;;;;;4958192;28;20190;-73
2022/05/29 09:55:56;;;;;;;6.53;3.00;;;31.70;1.00;;;;;;4968061;28;20277;-73
2022/05/29 09:58:48;;;;;;;4.90;2.42;;;31.50;1.00;;;;;;4963358;28;20293;-72
2022/05/29 10:01:28;;;;;;;4.93;2.42;;;31.60;1.00;;;;;;4955596;28;20624;-73
2022/05/29 10:03:57;;;;;;;6.03;2.78;;;31.50;1.00;;;;;;4968953;28;20217;-73
2022/05/29 10:06:34;;;;;;;5.63;2.72;;;32.50;1.00;;;;;;4974641;28;20183;-73
2022/05/29 10:09:17;;;;;;;9.52;2.65;;;32.60;1.00;;;;;;4986570;28;20739;-73
2022/05/29 10:11:49;;;;;;;5.18;2.58;;;32.30;1.00;;;;;;4964369;28;20259;-72
2022/05/29 10:14:41;;;;;;;6.60;2.63;;;33.00;1.00;;;;;;4967342;28;20301;-74
2022/05/29 10:17:28;;;;;;;8.63;2.60;;;32.80;1.00;;;;;;4965680;28;20213;-73
2022/05/29 10:19:54;;;;;;;5.75;2.47;;;31.40;1.00;;;;;;4970554;28;20242;-73
2022/05/29 10:22:29;;;;;;;6.10;2.47;;;29.30;1.00;;;;;;4963206;28;20167;-73
2022/05/29 10:24:55;;;;;;;5.05;2.42;;;27.40;1.00;;;;;;4961727;28;20286;-72
2022/05/29 10:27:46;;;;;;;8.77;2.90;;;25.60;1.00;;;;;;4958964;28;20317;-72
2022/05/29 10:30:45;;;;;;;8.00;3.23;;;24.20;1.00;;;;;;4958420;28;20728;-72
2022/05/29 10:33:18;;;;;;;6.93;2.30;;;23.00;1.00;;;;;;4944294;28;20211;-71
2022/05/29 10:35:45;;;;;;;6.80;2.77;;;22.10;1.00;;;;;;4972424;28;20455;-72
2022/05/29 10:38:29;;;;;;;6.80;2.80;;;21.50;1.00;;;;;;4981922;28;20469;-71
2022/05/29 10:41:00;;;;;;;10.33;2.70;;;21.10;1.00;;;;;;4964359;28;20443;-72
2022/05/29 10:43:37;;;;;;;11.80;3.13;;;20.60;1.00;;;;;;4966034;28;20622;-71
2022/05/29 10:46:06;;;;;;;7.97;3.30;;;20.20;1.00;;;;;;4963809;28;20446;-72
2022/05/29 10:48:41;;;;;;;7.03;3.30;;;20.00;1.00;;;;;;4960854;28;21041;-72
2022/05/29 10:51:19;;;;;;;8.30;3.30;;;20.20;1.00;;;;;;4963344;28;20444;-72
2022/05/29 10:54:18;;;;;;;7.67;2.67;;;19.90;1.00;;;;;;4962368;28;20462;-72
2022/05/29 10:57:20;;;;;;;4.67;2.30;;;19.90;1.00;;;;;;4959417;28;20439;-71
2022/05/29 11:00:12;;;;;;;7.97;2.90;;;20.30;1.00;;;;;;4965426;28;20434;-72
2022/05/29 11:03:17;;;;;;;6.73;3.23;;;20.70;1.00;;;;;;4973832;28;20414;-72
2022/05/29 11:06:15;;;;;;;6.40;2.30;;;21.00;1.00;;;;;;4967743;28;20450;-73
2022/05/29 11:09:07;;;;;;;6.10;2.47;;;21.70;1.00;;;;;;4961518;28;20434;-72
2022/05/29 11:11:39;;;;;;;8.97;3.00;;;23.30;1.00;;;;;;4962090;28;20442;-72
2022/05/29 11:14:10;;;;;;;8.93;3.13;;;24.10;1.00;;;;;;4975961;28;20966;-72
2022/05/29 11:17:02;;;;;;;9.20;2.37;;;24.40;1.00;;;;;;4963399;28;20442;-73
2022/05/29 11:19:49;;;;;;;5.70;2.40;;;25.50;1.00;;;;;;4965003;28;20455;-73
2022/05/29 11:22:20;;;;;;;4.23;2.13;;;26.00;1.00;;;;;;4966069;28;20817;-72
2022/05/29 11:25:07;;;;;;;6.20;2.87;;;25.90;1.00;;;;;;4968395;28;20957;-73
2022/05/29 11:27:53;;;;;;;6.93;2.93;;;27.00;1.00;;;;;;4973357;28;20442;-72
2022/05/29 11:30:53;;;;;;;8.43;3.30;;;28.20;1.00;;;;;;4968040;28;20670;-72
2022/05/29 11:33:18;;;;;;;5.53;2.60;;;27.00;1.00;;;;;;4965164;28;20179;-73
2022/05/29 11:36:08;;;;;;;8.30;2.50;;;26.70;1.00;;;;;;4966920;28;20206;-72
2022/05/29 11:38:52;;;;;;;4.50;2.20;;;27.40;1.00;;;;;;4973089;28;20211;-72
2022/05/29 11:41:29;;;;;;;6.37;2.30;;;27.70;1.00;;;;;;4970899;28;20700;-72
2022/05/29 11:44:18;;;;;;;6.17;2.33;;;27.10;1.00;;;;;;4980134;28;20265;-72
2022/05/29 11:52:37;;;;;;;5.23;2.27;;;23.90;1.00;;;;;;4958375;28;20522;-72
2022/05/29 11:55:32;;;;;;;8.20;2.80;;;26.20;1.00;;;;;;4966588;28;20434;-72
2022/05/29 11:58:23;;;;;;;3.30;1.70;;;29.30;1.00;;;;;;4965464;28;20215;-73
2022/05/29 12:01:23;;;;;;;4.38;1.77;;;31.50;1.00;;;;;;4967062;28;20171;-72
2022/05/29 12:03:55;;;;;;;4.32;1.90;;;33.00;1.00;;;;;;4968391;28;20214;-72
2022/05/29 12:06:42;;;;;;;6.78;2.20;;;33.90;1.00;;;;;;4964872;28;20182;-73
2022/05/29 12:09:35;;;;;;;5.03;2.33;;;32.30;1.00;;;;;;4970793;28;20559;-72
2022/05/29 12:12:15;;;;;;;6.18;2.03;;;30.90;1.00;;;;;;4954695;28;20282;-72
2022/05/29 12:14:58;;;;;;;5.80;1.80;;;31.10;1.00;;;;;;4967587;28;20201;-72
2022/05/29 12:17:30;;;;;;;3.85;1.67;;;29.90;1.00;;;;;;4960183;28;20698;-72
2022/05/29 12:20:08;;;;;;;6.30;2.00;;;28.00;1.00;;;;;;4969616;28;20224;-72
2022/05/29 12:22:44;;;;;;;6.50;1.97;;;25.70;1.00;;;;;;4964946;28;20183;-73
2022/05/29 12:25:54;;;;;;;3.90;2.00;;;24.30;1.00;;;;;;4972378;28;20198;-72
2022/05/29 12:28:44;;;;;;;5.90;2.00;;;23.60;1.00;;;;;;4876863;29;20505;-72
2022/05/29 12:31:20;;;;;;;5.83;2.00;;;23.10;1.00;;;;;;4973243;28;20410;-72
2022/05/29 12:33:46;;;;;;;4.43;2.20;;;21.70;1.00;;;;;;4977902;28;20434;-71
2022/05/29 12:36:27;;;;;;;3.67;1.80;;;21.70;1.00;;;;;;4967581;28;20478;-72
2022/05/29 12:39:29;;;;;;;4.53;1.67;;;21.60;1.00;;;;;;4978248;28;20477;-71
2022/05/29 12:42:18;;;;;;;4.43;1.80;;;21.30;1.00;;;;;;4979338;28;20417;-71
2022/05/29 12:45:11;;;;;;;5.17;2.00;;;21.30;1.00;;;;;;4973893;28;20457;-70
2022/05/29 12:48:02;;;;;;;4.10;1.90;;;21.40;1.00;;;;;;4967047;28;20626;-70
2022/05/29 12:50:42;;;;;;;4.93;1.80;;;21.40;1.00;;;;;;4978503;28;20414;-71
2022/05/29 12:53:37;;;;;;;4.23;1.70;;;21.40;1.00;;;;;;4974571;28;20520;-71
2022/05/29 12:56:29;;;;;;;4.73;2.23;;;21.80;1.00;;;;;;4972007;28;20816;-71
2022/05/29 12:59:16;;;;;;;6.50;2.10;;;22.20;1.00;;;;;;4972786;28;20473;-71
2022/05/29 13:02:11;;;;;;;4.47;1.90;;;22.70;1.00;;;;;;4982615;28;20417;-70
2022/05/29 13:04:56;;;;;;;3.27;1.80;;;24.30;1.00;;;;;;4979166;28;20511;-71
2022/05/29 13:07:24;;;;;;;7.53;2.00;;;25.50;1.00;;;;;;4976110;28;20465;-71
2022/05/29 13:10:09;;;;;;;8.17;2.43;;;28.10;1.00;;;;;;4982214;28;20467;-72
2022/05/29 13:13:01;;;;;;;6.23;1.60;;;29.50;1.00;;;;;;4978749;28;20202;-71
2022/05/29 13:15:36;;;;;;;4.40;1.75;;;30.00;1.00;;;;;;4973777;28;20260;-73
2022/05/29 13:18:46;;;;;;;3.65;1.67;;;31.40;1.00;;;;;;4964319;28;20206;-73
2022/05/29 13:21:17;;;;;;;4.35;1.80;;;32.20;1.00;;;;;;4966659;28;20193;-73
2022/05/29 13:23:46;;;;;;;3.92;1.80;;;30.10;1.00;;;;;;4980521;28;20228;-74
2022/05/29 13:26:15;;;;;;;3.65;1.90;;;28.90;1.00;;;;;;4970227;28;20174;-72
2022/05/29 13:28:43;;;;;;;3.85;1.60;;;29.20;1.00;;;;;;4978333;28;20248;-73
2022/05/29 13:31:14;;;;;;;5.17;2.00;;;28.40;1.00;;;;;;4964967;28;20446;-72
2022/05/29 13:33:42;;;;;;;3.30;1.57;;;27.10;1.00;;;;;;4969928;28;20184;-73
2022/05/29 13:36:08;;;;;;;4.60;1.90;;;26.00;1.00;;;;;;4973290;28;20222;-72
2022/05/29 13:38:45;;;;;;;5.00;1.90;;;25.90;1.00;;;;;;4978110;28;20222;-72
2022/05/29 13:41:52;;;;;;;3.67;1.60;;;26.00;1.00;;;;;;4962860;28;20214;-72
2022/05/29 13:44:38;;;;;;;6.40;1.73;;;26.80;1.00;;;;;;4970031;28;20230;-73
2022/05/29 13:47:32;;;;;;;4.40;2.10;;;27.20;1.00;;;;;;4968882;28;20745;-72
2022/05/29 13:50:01;;;;;;;3.88;1.90;;;29.20;1.00;;;;;;4971870;28;20205;-72
2022/05/29 13:52:50;;;;;;;4.50;1.88;;;31.30;1.00;;;;;;4982212;28;20289;-73
2022/05/29 13:55:43;;;;;;;6.53;2.10;;;33.00;1.00;;;;;;4969884;28;20339;-73
2022/05/29 14:04:43;;;;;;;5.13;2.30;;;34.50;1.00;;;;;;4959702;28;20273;-73